GAF934 EDDK-KSLC
Flight info
| Callsign | GAF934 |
|---|---|
| Flight time | N/A |
| Altitude | 38000 |
| Route | WIPUR1R WIPUR DCT DIXAT DCT EEL DCT SUTEB DCT GIBSU DCT FORTY DCT MOCHA DCT OSBON/M080F380 DCT 64N015W/M081F400 66N027W 68N041W 68N056W/N0462F400 66N071W DCT YZS J540 YYL J539 YPA Q838 ITREK Q827 RAWZY DCT EDYTH/N0447F410 DCT TOCUD/N0444F400 DCT JAC CARTR1 |
| Aircraft | A343/H-SDE2E3FGHIJ4J5M1RWXY/LB1D1 |
Departure
| Time | 2026-05-04 17:27 |
|---|---|
| Airport | Cologne Bonn Airport (EDDK) |
Arrival
| Time | N/A |
|---|---|
| Airport | Salt Lake City International Airport (KSLC) |
| Time | Latitude | Longitude | Altitude | Speed | Heading |
|---|---|---|---|---|---|
| 2026-05-04 17:04 | 50.86247 | 7.12141 | 236 ft | 0 kts | 255° |
| 2026-05-04 17:14 | 50.86258 | 7.12209 | 242 ft | 4 kts | 256° |
| 2026-05-04 17:14 | 50.86265 | 7.12249 | 242 ft | 4 kts | 245° |
| 2026-05-04 17:14 | 50.86302 | 7.12303 | 242 ft | 4 kts | 181° |
| 2026-05-04 17:15 | 50.86316 | 7.12301 | 242 ft | 1 kts | 166° |
| 2026-05-04 17:15 | 50.86318 | 7.12300 | 242 ft | 0 kts | 166° |
| 2026-05-04 17:17 | 50.86235 | 7.12333 | 237 ft | 13 kts | 166° |
| 2026-05-04 17:18 | 50.86136 | 7.12360 | 240 ft | 15 kts | 168° |
| 2026-05-04 17:18 | 50.86070 | 7.12566 | 243 ft | 9 kts | 66° |
| 2026-05-04 17:19 | 50.86123 | 7.12743 | 246 ft | 14 kts | 64° |
| 2026-05-04 17:19 | 50.86237 | 7.13126 | 255 ft | 24 kts | 64° |
| 2026-05-04 17:20 | 50.86418 | 7.13719 | 257 ft | 35 kts | 64° |
| 2026-05-04 17:20 | 50.86581 | 7.14265 | 264 ft | 8 kts | 71° |
| 2026-05-04 17:20 | 50.86578 | 7.14332 | 265 ft | 6 kts | 108° |
| 2026-05-04 17:21 | 50.86483 | 7.14500 | 271 ft | 13 kts | 137° |
| 2026-05-04 17:21 | 50.86319 | 7.14735 | 280 ft | 18 kts | 137° |
| 2026-05-04 17:22 | 50.86219 | 7.14879 | 286 ft | 20 kts | 138° |
| 2026-05-04 17:22 | 50.86111 | 7.15043 | 296 ft | 23 kts | 137° |
| 2026-05-04 17:23 | 50.85712 | 7.15615 | 308 ft | 24 kts | 137° |
| 2026-05-04 17:23 | 50.85605 | 7.15770 | 309 ft | 20 kts | 137° |
| 2026-05-04 17:23 | 50.85376 | 7.16109 | 314 ft | 24 kts | 130° |
| 2026-05-04 17:24 | 50.85466 | 7.16512 | 314 ft | 8 kts | 6° |
| 2026-05-04 17:25 | 50.85524 | 7.16521 | 314 ft | 8 kts | 2° |
| 2026-05-04 17:25 | 50.85626 | 7.16417 | 313 ft | 9 kts | 318° |
| 2026-05-04 17:26 | 50.85948 | 7.15949 | 308 ft | 79 kts | 317° |
| 2026-05-04 17:26 | 50.88061 | 7.12874 | 626 ft | 168 kts | 321° |
| 2026-05-04 17:27 | 50.90442 | 7.12517 | 1481 ft | 181 kts | 13° |
| 2026-05-04 17:27 | 50.92874 | 7.13631 | 2106 ft | 214 kts | 27° |